Time;durP1;ratioP1;P1;durP2;ratioP2;P2;SDS_P1;SDS_P2;PMS_P1;PMS_P2;Temp;Humidity;BMP_temperature;BMP_pressure;BME280_temperature;BME280_humidity;BME280_pressure;Samples;Min_cycle;Max_cycle;Signal;HPM_P1;HPM_P2
2023/01/03 00:01:16;;;;;;;27.45;15.15;;;;;;;;;;4951184;28;20481;-71
2023/01/03 00:03:42;;;;;;;26.95;14.63;;;;;;;;;;4951270;28;20058;-72
2023/01/03 00:06:15;;;;;;;30.50;14.93;;;;;;;;;;4952828;28;20042;-71
2023/01/03 00:08:41;;;;;;;32.15;15.50;;;;;;;;;;4934725;28;20054;-71
2023/01/03 00:11:15;;;;;;;30.25;15.23;;;;;;;;;;4953175;28;20054;-73
2023/01/03 00:13:41;;;;;;;30.00;15.77;;;;;;;;;;4952782;28;20138;-73
2023/01/03 00:16:19;;;;;;;34.50;15.15;;;;;;;;;;4952422;28;20571;-72
2023/01/03 00:18:45;;;;;;;27.58;15.23;;;;;;;;;;4944005;28;20055;-72
2023/01/03 00:21:11;;;;;;;26.55;15.68;;;;;;;;;;4939795;28;20066;-72
2023/01/03 00:23:38;;;;;;;28.00;14.85;;;;;;;;;;4955493;28;20461;-71
2023/01/03 00:26:10;;;;;;;30.42;15.18;;;;;;;;;;4949726;28;20043;-70
2023/01/03 00:28:37;;;;;;;29.15;15.35;;;;;;;;;;4946565;28;20101;-70
2023/01/03 00:31:10;;;;;;;29.05;15.52;;;;;;;;;;4948734;28;20055;-71
2023/01/03 00:33:38;;;;;;;27.73;14.65;;;;;;;;;;4934840;28;21214;-74
2023/01/03 00:36:07;;;;;;;31.42;16.55;;;;;;;;;;4954221;28;20054;-74
2023/01/03 00:38:34;;;;;;;30.00;16.48;;;;;;;;;;4944938;28;20188;-72
2023/01/03 00:41:04;;;;;;;31.40;15.90;;;;;;;;;;4938300;28;20053;-71
2023/01/03 00:43:30;;;;;;;27.65;15.73;;;;;;;;;;4949680;28;20051;-70
2023/01/03 00:45:56;;;;;;;31.77;15.55;;;;;;;;;;4942840;28;20081;-73
2023/01/03 00:48:23;;;;;;;32.65;15.88;;;;;;;;;;4944892;28;20051;-71
2023/01/03 00:50:48;;;;;;;28.83;16.00;;;;;;;;;;4948107;28;20043;-72
2023/01/03 00:53:14;;;;;;;33.88;16.00;;;;;;;;;;4955041;28;20551;-75
2023/01/03 00:55:40;;;;;;;26.33;15.23;;;;;;;;;;4953647;28;20047;-70
2023/01/03 00:58:06;;;;;;;29.40;14.23;;;;;;;;;;4948981;28;20047;-72
2023/01/03 01:00:33;;;;;;;32.17;15.48;;;;;;;;;;4954293;28;20113;-71
2023/01/03 01:02:59;;;;;;;33.75;14.93;;;;;;;;;;4952012;28;20063;-72
2023/01/03 01:05:27;;;;;;;30.65;15.65;;;;;;;;;;4954228;28;20046;-71
2023/01/03 01:07:53;;;;;;;29.13;14.82;;;;;;;;;;4956146;28;20066;-71
2023/01/03 01:10:19;;;;;;;30.67;16.55;;;;;;;;;;4953454;28;20047;-70
2023/01/03 01:12:46;;;;;;;32.80;16.40;;;;;;;;;;4955296;28;20066;-72
2023/01/03 01:15:12;;;;;;;28.52;15.27;;;;;;;;;;4967329;28;20042;-72
2023/01/03 01:17:39;;;;;;;31.55;15.60;;;;;;;;;;4949857;28;20157;-71
2023/01/03 01:20:05;;;;;;;35.13;16.33;;;;;;;;;;4954029;28;20734;-70
2023/01/03 01:22:34;;;;;;;28.20;15.60;;;;;;;;;;4954669;28;20046;-71
2023/01/03 01:25:00;;;;;;;31.70;15.52;;;;;;;;;;4950585;28;20355;-72
2023/01/03 01:27:26;;;;;;;29.50;16.30;;;;;;;;;;4939585;28;20050;-72
2023/01/03 01:29:52;;;;;;;33.00;16.52;;;;;;;;;;4933689;28;20241;-70
2023/01/03 01:32:18;;;;;;;33.65;16.55;;;;;;;;;;4949594;28;20046;-71
2023/01/03 01:34:44;;;;;;;30.95;16.77;;;;;;;;;;4952707;28;20061;-70
2023/01/03 01:37:10;;;;;;;31.95;16.15;;;;;;;;;;4949783;28;20042;-71
2023/01/03 01:39:36;;;;;;;31.85;17.60;;;;;;;;;;4951232;28;20177;-70
2023/01/03 01:44:55;;;;;;;31.42;16.83;;;;;;;;;;4941004;28;20555;-71
2023/01/03 01:47:33;;;;;;;33.75;16.73;;;;;;;;;;4950978;28;20121;-72
2023/01/03 01:50:12;;;;;;;31.10;17.05;;;;;;;;;;4956687;28;20456;-70
2023/01/03 01:52:42;;;;;;;28.13;16.77;;;;;;;;;;4955879;28;20063;-71
2023/01/03 01:55:12;;;;;;;32.95;17.10;;;;;;;;;;4952359;28;20051;-71
2023/01/03 01:57:39;;;;;;;33.75;16.85;;;;;;;;;;4950861;28;20555;-70
2023/01/03 02:00:07;;;;;;;32.00;17.30;;;;;;;;;;4947315;28;20086;-71
2023/01/03 02:02:33;;;;;;;32.33;16.20;;;;;;;;;;4952613;28;20051;-71
2023/01/03 02:05:06;;;;;;;31.30;16.45;;;;;;;;;;4949305;28;20051;-70
2023/01/03 02:07:33;;;;;;;27.92;16.50;;;;;;;;;;4952979;28;20151;-69
2023/01/03 02:09:59;;;;;;;29.50;16.58;;;;;;;;;;4952448;28;20042;-71
2023/01/03 02:15:41;;;;;;;31.45;18.05;;;;;;;;;;4948554;28;20046;-71
2023/01/03 02:18:17;;;;;;;29.05;16.25;;;;;;;;;;4947416;28;20492;-71
2023/01/03 02:21:26;;;;;;;28.52;15.75;;;;;;;;;;4945940;28;20050;-70
2023/01/03 02:24:17;;;;;;;25.73;15.48;;;;;;;;;;4943315;28;20173;-72
2023/01/03 02:27:27;;;;;;;31.42;15.45;;;;;;;;;;4944009;28;20488;-71
2023/01/03 02:30:08;;;;;;;30.17;16.10;;;;;;;;;;4959557;28;20046;-70
2023/01/03 02:32:45;;;;;;;36.83;17.00;;;;;;;;;;4951404;28;20043;-71
2023/01/03 02:35:32;;;;;;;32.17;16.65;;;;;;;;;;4951932;28;20046;-71
2023/01/03 02:38:05;;;;;;;30.38;16.40;;;;;;;;;;4949102;28;20046;-70
2023/01/03 02:40:34;;;;;;;29.70;15.65;;;;;;;;;;4958326;28;20051;-70
2023/01/03 02:43:06;;;;;;;28.67;15.07;;;;;;;;;;4946123;28;20880;-71
2023/01/03 02:46:01;;;;;;;27.25;15.93;;;;;;;;;;4946890;28;20054;-73
2023/01/03 02:48:33;;;;;;;32.05;15.98;;;;;;;;;;4953698;28;20051;-69
2023/01/03 02:51:02;;;;;;;30.60;15.30;;;;;;;;;;4953863;28;20059;-70
2023/01/03 02:53:31;;;;;;;29.70;14.95;;;;;;;;;;4959951;28;20043;-70
2023/01/03 02:56:05;;;;;;;27.67;16.15;;;;;;;;;;4956270;28;20131;-70
2023/01/03 02:58:34;;;;;;;28.52;15.63;;;;;;;;;;4951686;28;20117;-70
2023/01/03 03:01:02;;;;;;;29.08;15.65;;;;;;;;;;4951284;28;20094;-71
2023/01/03 03:03:32;;;;;;;29.38;16.02;;;;;;;;;;4948710;28;20405;-70
2023/01/03 03:06:28;;;;;;;28.52;15.25;;;;;;;;;;4956692;28;20051;-69
2023/01/03 03:08:54;;;;;;;29.58;16.23;;;;;;;;;;4955862;28;20113;-70
2023/01/03 03:14:35;;;;;;;30.90;15.32;;;;;;;;;;4956047;28;20093;-71
2023/01/03 03:17:23;;;;;;;27.67;15.30;;;;;;;;;;4953358;28;20117;-70
2023/01/03 03:25:40;;;;;;;28.33;15.23;;;;;;;;;;4953949;28;20464;-70
2023/01/03 03:31:01;;;;;;;27.33;14.98;;;;;;;;;;4960585;28;20054;-68
2023/01/03 03:33:31;;;;;;;28.52;15.35;;;;;;;;;;4957504;28;20047;-71
2023/01/03 03:36:13;;;;;;;30.88;14.43;;;;;;;;;;4954524;28;20481;-70
2023/01/03 03:38:42;;;;;;;26.00;14.40;;;;;;;;;;4961646;28;20105;-71
2023/01/03 03:47:41;;;;;;;29.10;14.82;;;;;;;;;;4917870;29;20389;-71
2023/01/03 03:50:16;;;;;;;26.10;14.48;;;;;;;;;;4918144;29;20270;-69
2023/01/03 03:52:46;;;;;;;22.48;14.38;;;;;;;;;;4921487;29;20055;-71
2023/01/03 03:55:18;;;;;;;24.70;15.05;;;;;;;;;;4920628;29;20482;-70
2023/01/03 03:57:50;;;;;;;27.25;13.77;;;;;;;;;;4915208;29;20529;-69
2023/01/03 04:00:21;;;;;;;32.03;15.05;;;;;;;;;;4922033;29;20534;-70
2023/01/03 04:02:48;;;;;;;26.80;14.85;;;;;;;;;;4917961;29;20063;-70
2023/01/03 04:05:19;;;;;;;27.00;15.30;;;;;;;;;;4919174;29;20055;-70
2023/01/03 04:07:45;;;;;;;27.75;14.20;;;;;;;;;;4919429;29;20473;-69
2023/01/03 04:10:12;;;;;;;29.45;14.80;;;;;;;;;;4918514;29;20188;-71
2023/01/03 04:12:38;;;;;;;26.42;14.20;;;;;;;;;;4917052;29;20187;-69
2023/01/03 04:15:06;;;;;;;27.20;13.95;;;;;;;;;;4931050;28;20054;-71
2023/01/03 04:17:33;;;;;;;24.75;13.50;;;;;;;;;;4954938;28;20077;-70
2023/01/03 04:19:59;;;;;;;25.75;14.32;;;;;;;;;;4953472;28;20054;-69
2023/01/03 04:22:24;;;;;;;27.33;13.18;;;;;;;;;;4951753;28;20055;-71
2023/01/03 04:24:51;;;;;;;24.67;13.25;;;;;;;;;;4949574;28;20043;-71
2023/01/03 04:27:16;;;;;;;24.33;12.95;;;;;;;;;;4951286;28;20069;-69
2023/01/03 04:29:42;;;;;;;25.17;14.07;;;;;;;;;;4954441;28;20054;-70
2023/01/03 04:32:08;;;;;;;28.73;14.10;;;;;;;;;;4954713;28;20047;-70
2023/01/03 04:34:35;;;;;;;25.40;14.00;;;;;;;;;;4956376;28;20054;-70
2023/01/03 04:37:01;;;;;;;23.88;13.30;;;;;;;;;;4953145;28;20047;-72
2023/01/03 04:39:27;;;;;;;30.10;14.77;;;;;;;;;;4954820;28;20480;-70
2023/01/03 04:41:52;;;;;;;20.90;13.30;;;;;;;;;;4948693;28;20126;-70
2023/01/03 04:44:18;;;;;;;30.50;14.00;;;;;;;;;;4950370;28;20054;-71
2023/01/03 04:46:44;;;;;;;27.05;14.02;;;;;;;;;;4955125;28;20047;-70
2023/01/03 04:49:10;;;;;;;24.45;14.27;;;;;;;;;;4952613;28;21519;-71
2023/01/03 04:51:37;;;;;;;28.00;14.68;;;;;;;;;;4954616;28;20106;-71
2023/01/03 04:54:04;;;;;;;24.80;13.75;;;;;;;;;;4956644;28;20059;-72
2023/01/03 04:56:35;;;;;;;24.80;14.27;;;;;;;;;;4954318;28;20502;-70
2023/01/03 04:59:02;;;;;;;28.90;14.27;;;;;;;;;;4953759;28;20357;-71
2023/01/03 05:01:28;;;;;;;25.10;13.63;;;;;;;;;;4952661;28;20267;-71
2023/01/03 05:03:58;;;;;;;24.77;14.55;;;;;;;;;;4952384;28;20055;-71
2023/01/03 05:06:25;;;;;;;26.85;13.60;;;;;;;;;;4951996;28;20493;-71
2023/01/03 05:08:52;;;;;;;24.63;14.35;;;;;;;;;;4952873;28;20047;-72
2023/01/03 05:11:18;;;;;;;33.88;14.68;;;;;;;;;;4950670;28;20062;-72
2023/01/03 05:13:44;;;;;;;26.02;14.88;;;;;;;;;;4954714;28;20421;-71
2023/01/03 05:16:12;;;;;;;27.48;15.13;;;;;;;;;;4956065;28;20516;-69
2023/01/03 05:18:39;;;;;;;26.10;14.88;;;;;;;;;;4958269;28;20109;-69
2023/01/03 05:26:42;;;;;;;26.83;15.93;;;;;;;;;;4954476;28;20090;-70
2023/01/03 05:29:10;;;;;;;24.10;13.93;;;;;;;;;;4957310;28;20039;-71
2023/01/03 05:31:36;;;;;;;30.42;14.43;;;;;;;;;;4955718;28;20378;-72
2023/01/03 05:34:02;;;;;;;27.38;14.55;;;;;;;;;;4953316;28;20067;-70
2023/01/03 05:36:28;;;;;;;24.52;14.55;;;;;;;;;;4957891;28;20042;-70
2023/01/03 05:38:54;;;;;;;25.98;14.70;;;;;;;;;;4955214;28;20069;-70
2023/01/03 05:44:05;;;;;;;;;;;;;;;;;;4955586;28;20051;-69
2023/01/03 05:46:31;;;;;;;24.33;13.45;;;;;;;;;;4957330;28;20148;-72
2023/01/03 05:48:57;;;;;;;27.60;14.82;;;;;;;;;;4955997;28;20076;-69
2023/01/03 05:51:24;;;;;;;22.85;13.93;;;;;;;;;;4955116;28;20533;-72
2023/01/03 05:53:50;;;;;;;26.52;13.85;;;;;;;;;;4955977;28;20445;-71
2023/01/03 05:56:16;;;;;;;27.27;14.38;;;;;;;;;;4975265;28;20054;-72
2023/01/03 05:58:43;;;;;;;24.02;13.07;;;;;;;;;;4952279;28;20197;-71
2023/01/03 06:01:10;;;;;;;22.25;13.45;;;;;;;;;;4959278;28;20077;-70
2023/01/03 06:03:36;;;;;;;21.25;12.82;;;;;;;;;;4952681;28;20054;-70
2023/01/03 06:06:04;;;;;;;20.63;12.57;;;;;;;;;;4958287;28;20125;-70
2023/01/03 06:08:30;;;;;;;23.55;13.73;;;;;;;;;;4955465;28;20051;-71
2023/01/03 06:10:55;;;;;;;28.83;13.18;;;;;;;;;;4953956;28;20102;-71
2023/01/03 06:13:22;;;;;;;21.70;12.93;;;;;;;;;;4952856;28;20303;-70
2023/01/03 06:17:53;;;;;;;24.10;12.82;;;;;;;;;;4955967;28;20085;-68
2023/01/03 06:18:35;;;;;;;23.58;13.35;;;;;;;;;;4952797;28;20547;-72
2023/01/03 06:21:04;;;;;;;23.50;13.55;;;;;;;;;;4954407;28;20055;-70
2023/01/03 06:23:30;;;;;;;22.23;13.32;;;;;;;;;;4952441;28;20150;-71
2023/01/03 06:25:56;;;;;;;23.15;13.23;;;;;;;;;;4958674;28;20051;-71
2023/01/03 06:28:22;;;;;;;24.05;13.10;;;;;;;;;;4954870;28;20468;-71
2023/01/03 06:30:48;;;;;;;23.05;13.15;;;;;;;;;;4954088;28;20050;-71
2023/01/03 06:33:14;;;;;;;24.60;13.07;;;;;;;;;;4952423;28;20047;-70
2023/01/03 06:35:40;;;;;;;23.88;13.18;;;;;;;;;;4955193;28;20768;-71
2023/01/03 06:38:06;;;;;;;21.45;12.25;;;;;;;;;;4954078;28;20102;-70
2023/01/03 06:40:32;;;;;;;24.98;12.60;;;;;;;;;;4948619;28;20731;-71
2023/01/03 06:42:58;;;;;;;20.52;12.15;;;;;;;;;;4952292;28;20371;-71
2023/01/03 06:53:39;;;;;;;;;;;;;;;;;;4953635;28;20054;-71
2023/01/03 06:56:06;;;;;;;23.15;12.80;;;;;;;;;;4955569;28;19930;-70
2023/01/03 06:58:32;;;;;;;24.63;13.20;;;;;;;;;;4952210;28;20513;-71
2023/01/03 07:01:03;;;;;;;24.70;13.23;;;;;;;;;;4951221;28;20685;-69
2023/01/03 07:03:31;;;;;;;27.33;12.77;;;;;;;;;;4948873;28;20382;-69
2023/01/03 07:05:56;;;;;;;27.42;13.75;;;;;;;;;;4952771;28;20054;-71
2023/01/03 07:08:23;;;;;;;29.65;12.43;;;;;;;;;;4954161;28;20050;-72
2023/01/03 07:10:49;;;;;;;21.92;12.63;;;;;;;;;;4950934;28;20047;-71
2023/01/03 07:15:59;;;;;;;26.20;12.77;;;;;;;;;;4949512;28;20043;-72
2023/01/03 07:18:25;;;;;;;26.63;12.82;;;;;;;;;;4951799;28;20172;-71
2023/01/03 07:20:51;;;;;;;23.50;12.75;;;;;;;;;;4952674;28;20049;-71
2023/01/03 07:23:17;;;;;;;26.83;12.85;;;;;;;;;;4953235;28;20047;-70
2023/01/03 07:25:43;;;;;;;24.30;11.38;;;;;;;;;;4962084;28;20046;-70
2023/01/03 07:28:10;;;;;;;22.42;12.98;;;;;;;;;;4955709;28;20046;-69
2023/01/03 07:30:38;;;;;;;23.45;12.15;;;;;;;;;;4954026;28;20140;-70
2023/01/03 07:33:05;;;;;;;24.52;13.90;;;;;;;;;;4953407;28;20051;-70
2023/01/03 07:35:33;;;;;;;26.50;14.07;;;;;;;;;;4953159;28;20074;-71
2023/01/03 07:37:59;;;;;;;29.98;13.30;;;;;;;;;;4951227;28;20055;-70
2023/01/03 07:40:25;;;;;;;27.23;12.60;;;;;;;;;;4958167;28;20097;-71
2023/01/03 07:45:41;;;;;;;20.95;12.18;;;;;;;;;;4950673;28;20042;-72
2023/01/03 07:48:07;;;;;;;22.60;12.00;;;;;;;;;;4952094;28;20058;-70
2023/01/03 07:50:34;;;;;;;23.25;11.90;;;;;;;;;;4949405;28;20683;-70
2023/01/03 07:53:00;;;;;;;22.63;12.00;;;;;;;;;;4950785;28;20110;-71
2023/01/03 07:55:27;;;;;;;21.83;11.82;;;;;;;;;;4952806;28;20050;-71
2023/01/03 07:57:54;;;;;;;24.27;12.85;;;;;;;;;;4946134;28;20055;-72
2023/01/03 08:00:21;;;;;;;19.73;12.38;;;;;;;;;;4947828;28;20046;-71
2023/01/03 08:02:47;;;;;;;17.33;11.27;;;;;;;;;;4946779;28;20071;-71
2023/01/03 08:05:13;;;;;;;23.98;12.23;;;;;;;;;;4945615;28;20062;-71
2023/01/03 08:07:39;;;;;;;22.63;11.75;;;;;;;;;;4947379;28;20109;-71
2023/01/03 08:15:36;;;;;;;21.23;11.52;;;;;;;;;;4951296;28;20050;-70
2023/01/03 08:18:02;;;;;;;25.83;11.15;;;;;;;;;;4950109;28;20199;-72
2023/01/03 08:20:28;;;;;;;23.23;11.38;;;;;;;;;;4940653;28;20050;-72
2023/01/03 08:22:54;;;;;;;25.92;12.27;;;;;;;;;;4956918;28;20055;-70
2023/01/03 08:25:20;;;;;;;24.02;11.82;;;;;;;;;;4945972;28;20054;-72
2023/01/03 08:27:46;;;;;;;24.40;11.73;;;;;;;;;;4943749;28;20054;-72
2023/01/03 08:30:12;;;;;;;21.73;12.30;;;;;;;;;;4944844;28;20066;-72
2023/01/03 08:32:38;;;;;;;30.88;12.15;;;;;;;;;;4934186;28;20497;-73
2023/01/03 08:35:05;;;;;;;25.58;11.85;;;;;;;;;;4950115;28;20073;-70
2023/01/03 08:37:32;;;;;;;29.52;11.52;;;;;;;;;;4945185;28;20445;-73
2023/01/03 08:40:02;;;;;;;25.77;12.30;;;;;;;;;;4946254;28;20065;-73
2023/01/03 08:42:28;;;;;;;25.60;11.85;;;;;;;;;;4942933;28;20062;-74
2023/01/03 08:44:59;;;;;;;21.52;11.05;;;;;;;;;;4945727;28;20054;-71
2023/01/03 08:47:26;;;;;;;19.85;9.70;;;;;;;;;;4944803;28;20401;-72
2023/01/03 08:49:54;;;;;;;23.60;9.77;;;;;;;;;;4941432;28;20050;-72
2023/01/03 08:52:20;;;;;;;19.50;10.50;;;;;;;;;;4952573;28;20116;-71
2023/01/03 08:54:46;;;;;;;23.83;10.40;;;;;;;;;;4951548;28;20556;-70
2023/01/03 08:57:12;;;;;;;17.35;10.48;;;;;;;;;;4945869;28;20078;-73
2023/01/03 08:59:38;;;;;;;19.80;11.30;;;;;;;;;;4951983;28;20054;-71
2023/01/03 09:02:05;;;;;;;20.42;10.85;;;;;;;;;;4950276;28;20109;-72
2023/01/03 09:04:30;;;;;;;21.27;11.25;;;;;;;;;;4945888;28;20125;-74
2023/01/03 09:06:57;;;;;;;27.95;11.52;;;;;;;;;;4947171;28;20047;-72
2023/01/03 09:09:22;;;;;;;22.20;10.48;;;;;;;;;;4951100;28;20106;-73
2023/01/03 09:11:48;;;;;;;25.73;9.98;;;;;;;;;;4949895;28;20053;-72
2023/01/03 09:14:14;;;;;;;23.75;10.38;;;;;;;;;;4949143;28;20050;-74
2023/01/03 09:16:40;;;;;;;20.50;10.07;;;;;;;;;;4945529;28;20047;-73
2023/01/03 09:19:06;;;;;;;23.33;10.75;;;;;;;;;;4951542;28;20070;-72
2023/01/03 09:21:32;;;;;;;20.23;10.77;;;;;;;;;;4948699;28;20059;-71
2023/01/03 09:23:58;;;;;;;17.88;11.27;;;;;;;;;;4953010;28;20054;-73
2023/01/03 09:26:24;;;;;;;24.08;11.32;;;;;;;;;;4951826;28;20082;-74
2023/01/03 09:28:50;;;;;;;21.55;11.75;;;;;;;;;;4941946;28;20043;-73
2023/01/03 09:31:16;;;;;;;22.92;13.63;;;;;;;;;;4945121;28;20381;-71
2023/01/03 09:33:42;;;;;;;25.20;12.57;;;;;;;;;;4949052;28;20054;-72
2023/01/03 09:36:08;;;;;;;22.58;11.30;;;;;;;;;;4946635;28;20404;-72
2023/01/03 09:38:34;;;;;;;23.42;12.23;;;;;;;;;;4948208;28;20468;-72
2023/01/03 09:41:11;;;;;;;29.73;12.10;;;;;;;;;;4953199;28;20058;-72
2023/01/03 09:43:44;;;;;;;22.15;11.27;;;;;;;;;;4948188;28;20058;-72
2023/01/03 09:46:24;;;;;;;20.33;11.30;;;;;;;;;;4951299;28;20051;-72
2023/01/03 09:48:52;;;;;;;22.73;11.55;;;;;;;;;;4949609;28;20050;-73
2023/01/03 10:03:43;;;;;;;26.60;10.05;;;;;;;;;;4954745;28;20158;-73
2023/01/03 10:06:18;;;;;;;26.80;10.40;;;;;;;;;;4954827;28;20249;-72
2023/01/03 10:08:59;;;;;;;27.33;10.68;;;;;;;;;;4955498;28;20142;-74
2023/01/03 10:11:33;;;;;;;20.25;10.07;;;;;;;;;;4955258;28;20435;-70
2023/01/03 10:14:31;;;;;;;21.98;9.05;;;;;;;;;;4950975;28;20059;-70
2023/01/03 10:17:26;;;;;;;21.95;9.52;;;;;;;;;;4944352;28;20193;-71
2023/01/03 10:20:10;;;;;;;22.42;10.00;;;;;;;;;;4954999;28;20205;-72
2023/01/03 10:22:37;;;;;;;23.45;9.40;;;;;;;;;;4952938;28;20578;-71
2023/01/03 10:25:03;;;;;;;24.27;9.02;;;;;;;;;;4956378;28;20382;-70
2023/01/03 10:27:37;;;;;;;22.00;10.52;;;;;;;;;;4956904;28;20065;-71
2023/01/03 10:30:06;;;;;;;25.30;8.47;;;;;;;;;;4953719;28;20126;-73
2023/01/03 10:32:56;;;;;;;20.42;8.93;;;;;;;;;;4955204;28;20050;-75
2023/01/03 10:35:31;;;;;;;21.85;9.05;;;;;;;;;;4954567;28;20078;-71
2023/01/03 10:37:58;;;;;;;16.75;8.32;;;;;;;;;;4961309;28;20081;-72
2023/01/03 10:40:43;;;;;;;16.98;7.68;;;;;;;;;;4953505;28;20051;-72
2023/01/03 10:43:19;;;;;;;;;;;;;;;;;;4948342;28;21724;-70
2023/01/03 10:45:57;;;;;;;20.15;7.38;;;;;;;;;;4952781;28;19933;-71
2023/01/03 10:48:32;;;;;;;17.17;7.60;;;;;;;;;;4952084;28;21743;-72
2023/01/03 10:50:58;;;;;;;17.35;8.27;;;;;;;;;;4952311;28;20066;-71
2023/01/03 10:53:24;;;;;;;15.68;7.53;;;;;;;;;;4949424;28;20054;-72
2023/01/03 10:55:52;;;;;;;22.00;8.10;;;;;;;;;;4958076;28;20178;-72
2023/01/03 10:58:21;;;;;;;21.05;7.93;;;;;;;;;;4951583;28;20062;-74
2023/01/03 11:00:47;;;;;;;20.17;7.78;;;;;;;;;;4957930;28;20063;-72
2023/01/03 11:03:24;;;;;;;14.27;7.38;;;;;;;;;;4959835;28;20449;-71
2023/01/03 11:05:59;;;;;;;15.85;7.20;;;;;;;;;;4952974;28;20055;-69
2023/01/03 11:08:45;;;;;;;17.00;7.70;;;;;;;;;;4972513;28;20548;-72
2023/01/03 11:11:27;;;;;;;16.30;7.40;;;;;;;;;;4958569;28;20066;-73
2023/01/03 11:14:10;;;;;;;16.77;6.85;;;;;;;;;;4954202;28;20448;-71
2023/01/03 11:16:36;;;;;;;18.27;7.28;;;;;;;;;;4947752;28;20055;-72
2023/01/03 11:19:04;;;;;;;20.20;7.47;;;;;;;;;;4951582;28;20622;-72
2023/01/03 11:22:16;;;;;;;12.82;7.20;;;;;;;;;;4949334;28;20055;-73
2023/01/03 11:24:53;;;;;;;21.02;6.60;;;;;;;;;;4908572;29;20107;-74
2023/01/03 11:27:25;;;;;;;15.65;6.93;;;;;;;;;;4914963;29;20047;-72
2023/01/03 11:30:17;;;;;;;19.73;7.35;;;;;;;;;;4908155;29;20048;-75
2023/01/03 11:33:04;;;;;;;21.45;9.38;;;;;;;;;;4894437;29;20560;-70
2023/01/03 11:35:53;;;;;;;14.90;6.00;;;;;;;;;;4914223;29;20056;-74
2023/01/03 11:38:32;;;;;;;14.50;5.82;;;;;;;;;;4911183;29;20059;-71
2023/01/03 11:41:11;;;;;;;13.85;5.50;;;;;;;;;;4911401;29;20219;-72
2023/01/03 11:44:11;;;;;;;13.05;5.85;;;;;;;;;;4899248;29;20134;-71
2023/01/03 11:46:46;;;;;;;13.55;5.55;;;;;;;;;;4910865;29;20456;-71
2023/01/03 11:49:34;;;;;;;14.68;5.43;;;;;;;;;;4910946;29;20044;-72
2023/01/03 11:52:08;;;;;;;17.67;5.90;;;;;;;;;;4912422;29;20245;-72
2023/01/03 11:54:57;;;;;;;16.92;6.20;;;;;;;;;;4921013;28;20129;-72
2023/01/03 11:57:27;;;;;;;11.88;5.40;;;;;;;;;;4957460;28;20047;-72
2023/01/03 12:00:12;;;;;;;10.15;5.40;;;;;;;;;;4954113;28;20054;-73
2023/01/03 12:02:47;;;;;;;13.63;5.47;;;;;;;;;;4954105;28;20055;-71
2023/01/03 12:05:35;;;;;;;14.52;4.88;;;;;;;;;;4947839;28;20134;-71
2023/01/03 12:08:26;;;;;;;15.98;5.05;;;;;;;;;;4952180;28;20062;-73
2023/01/03 12:11:14;;;;;;;14.65;5.20;;;;;;;;;;4950765;28;20039;-72
2023/01/03 12:14:02;;;;;;;20.08;5.53;;;;;;;;;;4945973;28;20055;-73
2023/01/03 12:16:46;;;;;;;11.55;4.97;;;;;;;;;;4948665;28;20047;-72
2023/01/03 12:19:24;;;;;;;17.50;4.90;;;;;;;;;;4958424;28;20463;-74
2023/01/03 12:22:08;;;;;;;13.60;5.75;;;;;;;;;;4956723;28;20057;-75
2023/01/03 12:25:19;;;;;;;11.95;4.90;;;;;;;;;;4948124;28;20474;-72
2023/01/03 12:28:10;;;;;;;19.77;5.70;;;;;;;;;;4951885;28;20567;-69
2023/01/03 12:30:55;;;;;;;17.08;5.30;;;;;;;;;;4957587;28;20051;-72
2023/01/03 12:33:43;;;;;;;16.83;4.88;;;;;;;;;;4954684;28;20062;-73
2023/01/03 12:36:09;;;;;;;15.13;5.38;;;;;;;;;;4954880;28;20047;-72
2023/01/03 12:38:40;;;;;;;10.60;5.18;;;;;;;;;;4946362;28;20147;-77
2023/01/03 12:41:13;;;;;;;19.75;6.10;;;;;;;;;;4955322;28;20051;-74
2023/01/03 12:43:46;;;;;;;17.17;5.35;;;;;;;;;;4957659;28;20057;-72
2023/01/03 12:46:19;;;;;;;13.52;5.18;;;;;;;;;;4955673;28;20054;-74
2023/01/03 12:49:00;;;;;;;14.23;5.07;;;;;;;;;;4960814;28;20093;-75
2023/01/03 12:51:27;;;;;;;15.63;5.32;;;;;;;;;;4957229;28;20117;-73
2023/01/03 12:54:04;;;;;;;20.42;5.60;;;;;;;;;;4960073;28;20117;-72
2023/01/03 12:56:52;;;;;;;16.15;5.45;;;;;;;;;;4958248;28;20232;-74
2023/01/03 12:59:55;;;;;;;21.13;5.65;;;;;;;;;;4960929;28;20063;-74
2023/01/03 13:02:28;;;;;;;12.27;5.22;;;;;;;;;;4954727;28;20054;-75
2023/01/03 13:05:11;;;;;;;15.98;5.93;;;;;;;;;;4961134;28;20059;-71
2023/01/03 13:07:40;;;;;;;16.40;5.40;;;;;;;;;;4961246;28;20047;-72
2023/01/03 13:10:15;;;;;;;20.20;5.53;;;;;;;;;;4962839;28;20062;-74
2023/01/03 13:12:45;;;;;;;17.65;5.78;;;;;;;;;;4954635;28;20457;-71
2023/01/03 13:15:24;;;;;;;17.65;5.20;;;;;;;;;;4961228;28;20050;-74
2023/01/03 13:17:50;;;;;;;13.02;4.93;;;;;;;;;;4960381;28;20089;-73
2023/01/03 13:20:35;;;;;;;13.75;5.10;;;;;;;;;;4963015;28;20043;-74
2023/01/03 13:23:45;;;;;;;13.65;5.20;;;;;;;;;;4957787;28;20504;-74
2023/01/03 13:26:19;;;;;;;14.30;5.50;;;;;;;;;;4955718;28;20047;-74
2023/01/03 13:28:45;;;;;;;17.00;5.33;;;;;;;;;;4956209;28;20047;-74
2023/01/03 13:31:17;;;;;;;15.25;5.32;;;;;;;;;;4950596;28;20636;-73
2023/01/03 13:34:17;;;;;;;14.15;5.70;;;;;;;;;;4959572;28;20878;-73
2023/01/03 13:37:05;;;;;;;15.30;5.70;;;;;;;;;;4961492;28;20063;-72
2023/01/03 13:39:46;;;;;;;17.15;5.57;;;;;;;;;;4961837;28;20484;-72
2023/01/03 13:42:27;;;;;;;18.23;5.40;;;;;;;;;;4959572;28;20047;-72
2023/01/03 13:45:18;;;;;;;12.85;5.18;;;;;;;;;;4958649;28;20113;-73
2023/01/03 13:47:52;;;;;;;11.63;4.90;;;;;;;;;;4965506;28;20039;-73
2023/01/03 13:50:23;;;;;;;12.13;5.25;;;;;;;;;;4962664;28;20140;-72
2023/01/03 13:53:02;;;;;;;15.55;5.22;;;;;;;;;;4964508;28;20199;-72
2023/01/03 13:55:34;;;;;;;18.05;5.65;;;;;;;;;;4959806;28;20137;-72
2023/01/03 13:58:00;;;;;;;14.98;5.28;;;;;;;;;;4957080;28;20051;-74
2023/01/03 14:00:28;;;;;;;13.52;4.63;;;;;;;;;;4963280;28;20054;-73
2023/01/03 14:03:18;;;;;;;19.35;4.85;;;;;;;;;;4962742;28;20066;-74
2023/01/03 14:06:29;;;;;;;21.10;5.20;;;;;;;;;;4959077;28;20043;-72
2023/01/03 14:09:32;;;;;;;14.07;4.88;;;;;;;;;;4950309;28;20512;-72
2023/01/03 14:12:22;;;;;;;11.05;4.57;;;;;;;;;;4959618;28;20611;-72
2023/01/03 14:14:54;;;;;;;13.00;4.85;;;;;;;;;;4962388;28;20047;-71
2023/01/03 14:17:26;;;;;;;13.48;4.82;;;;;;;;;;4967469;28;20087;-74
2023/01/03 14:19:57;;;;;;;13.82;5.20;;;;;;;;;;4964933;28;20296;-73
2023/01/03 14:22:33;;;;;;;15.10;5.07;;;;;;;;;;4966149;28;20050;-73
2023/01/03 14:24:59;;;;;;;12.77;4.60;;;;;;;;;;4956256;28;20054;-72
2023/01/03 14:27:35;;;;;;;13.15;4.85;;;;;;;;;;4962110;28;20098;-72
2023/01/03 14:30:01;;;;;;;13.13;5.47;;;;;;;;;;4958794;28;20046;-75
2023/01/03 14:32:30;;;;;;;15.38;5.30;;;;;;;;;;4956988;28;20141;-70
2023/01/03 14:34:57;;;;;;;18.83;5.13;;;;;;;;;;4962478;28;20168;-71
2023/01/03 14:37:26;;;;;;;16.02;5.07;;;;;;;;;;4959859;28;20134;-72
2023/01/03 14:40:01;;;;;;;14.25;5.15;;;;;;;;;;4963518;28;20058;-72
2023/01/03 14:42:27;;;;;;;;;;;;;;;;;;4977842;28;20519;-73
2023/01/03 14:44:58;;;;;;;16.15;5.38;;;;;;;;;;4964629;28;19934;-71
2023/01/03 14:47:37;;;;;;;14.02;4.63;;;;;;;;;;4961679;28;20682;-72
2023/01/03 14:50:05;;;;;;;15.75;4.88;;;;;;;;;;4955416;28;20457;-73
2023/01/03 14:52:39;;;;;;;11.85;4.72;;;;;;;;;;4961273;28;20496;-72
2023/01/03 14:55:14;;;;;;;11.27;4.43;;;;;;;;;;4977501;28;20099;-73
2023/01/03 14:57:43;;;;;;;16.75;4.80;;;;;;;;;;4962032;28;20068;-71
2023/01/03 15:00:18;;;;;;;17.35;4.82;;;;;;;;;;4964391;28;20121;-75
2023/01/03 15:02:45;;;;;;;13.55;4.75;;;;;;;;;;4960296;28;20054;-75
2023/01/03 15:05:31;;;;;;;17.63;4.65;;;;;;;;;;4965982;28;20153;-72
2023/01/03 15:08:17;;;;;;;11.18;4.45;;;;;;;;;;4958181;28;20061;-72
2023/01/03 15:10:49;;;;;;;13.25;3.88;;;;;;;;;;4952977;28;20054;-74
2023/01/03 15:13:29;;;;;;;12.95;4.80;;;;;;;;;;4958771;28;20050;-74
2023/01/03 15:15:59;;;;;;;17.52;4.50;;;;;;;;;;4959842;28;20390;-72
2023/01/03 15:18:28;;;;;;;16.83;5.75;;;;;;;;;;4960498;28;20043;-73
2023/01/03 15:20:56;;;;;;;10.07;4.47;;;;;;;;;;4958612;28;20130;-74
2023/01/03 15:23:45;;;;;;;10.90;4.50;;;;;;;;;;4958009;28;20501;-72
2023/01/03 15:26:37;;;;;;;13.10;4.95;;;;;;;;;;4951218;28;20047;-72
2023/01/03 15:29:23;;;;;;;14.63;4.63;;;;;;;;;;4949890;28;20069;-71
2023/01/03 15:31:59;;;;;;;15.15;4.85;;;;;;;;;;4950634;28;20059;-70
2023/01/03 15:34:28;;;;;;;20.88;5.07;;;;;;;;;;4959443;28;20062;-71
2023/01/03 15:37:04;;;;;;;10.75;4.72;;;;;;;;;;4953786;28;20046;-73
2023/01/03 15:39:43;;;;;;;17.83;5.88;;;;;;;;;;4957979;28;20039;-70
2023/01/03 15:44:57;;;;;;;11.23;4.60;;;;;;;;;;4954415;28;20071;-78
2023/01/03 15:47:28;;;;;;;17.85;4.57;;;;;;;;;;4959406;28;20051;-69
2023/01/03 15:49:58;;;;;;;13.45;5.03;;;;;;;;;;4960084;28;20127;-73
2023/01/03 15:52:24;;;;;;;12.50;4.68;;;;;;;;;;4950055;28;20283;-72
2023/01/03 15:54:50;;;;;;;13.25;4.45;;;;;;;;;;4954840;28;20055;-74
2023/01/03 15:57:28;;;;;;;11.73;5.18;;;;;;;;;;4950736;28;20050;-72
2023/01/03 16:00:00;;;;;;;16.45;5.22;;;;;;;;;;4957893;28;20427;-76